createdAt,value
2018-09-22T00:01:50.587Z,99673.00
2018-09-22T00:04:20.254Z,99669.00
2018-09-22T00:06:49.932Z,99673.00
2018-09-22T00:09:20.473Z,99677.00
2018-09-22T00:11:50.206Z,99685.00
2018-09-22T00:14:19.731Z,99689.00
2018-09-22T00:16:49.203Z,99682.00
2018-09-22T00:19:19.023Z,99684.00
2018-09-22T00:21:48.738Z,99688.00
2018-09-22T00:24:18.520Z,99684.00
2018-09-22T00:26:48.785Z,99684.00
2018-09-22T00:29:18.285Z,99684.00
2018-09-22T00:31:47.905Z,99692.00
2018-09-22T00:34:17.587Z,99694.00
2018-09-22T00:36:47.204Z,99688.00
2018-09-22T00:39:16.786Z,99690.00
2018-09-22T00:41:46.536Z,99684.00
2018-09-22T00:44:16.204Z,99688.00
2018-09-22T00:46:46.003Z,99684.00
2018-09-22T00:49:15.676Z,99684.00
2018-09-22T00:51:45.229Z,99687.00
2018-09-22T00:54:15.130Z,99687.00
2018-09-22T00:56:44.665Z,99684.00
2018-09-22T00:59:15.889Z,99694.00
2018-09-22T01:01:46.358Z,99694.00
2018-09-22T01:04:15.847Z,99687.00
2018-09-22T01:06:45.427Z,99698.00
2018-09-22T01:09:14.997Z,99693.00
2018-09-22T01:11:44.499Z,99709.00
2018-09-22T01:14:14.062Z,99710.00
2018-09-22T01:16:43.617Z,99713.00
2018-09-22T01:19:13.213Z,99716.00
2018-09-22T01:21:42.661Z,99717.00
2018-09-22T01:24:12.090Z,99712.00
2018-09-22T01:26:42.426Z,99712.00
2018-09-22T01:29:16.027Z,99711.00
2018-09-22T01:31:46.257Z,99723.00
2018-09-22T01:34:15.955Z,99717.00
2018-09-22T01:36:45.787Z,99720.00
2018-09-22T01:39:15.463Z,99730.00
2018-09-22T01:41:45.000Z,99729.00
2018-09-22T01:44:17.701Z,99734.00
2018-09-22T01:46:48.033Z,99734.00
2018-09-22T01:49:17.688Z,99738.00
2018-09-22T01:51:47.643Z,99739.00
2018-09-22T01:54:17.377Z,99749.00
2018-09-22T01:56:47.201Z,99743.00
2018-09-22T01:59:16.968Z,99741.00
2018-09-22T02:01:46.713Z,99738.00
2018-09-22T02:04:16.617Z,99736.00
2018-09-22T02:06:46.206Z,99748.00
2018-09-22T02:09:15.990Z,99750.00
2018-09-22T02:11:45.492Z,99748.00
2018-09-22T02:14:15.330Z,99762.00
2018-09-22T02:16:44.898Z,99756.00
2018-09-22T02:19:14.607Z,99761.00
2018-09-22T02:21:44.407Z,99766.00
2018-09-22T02:24:14.553Z,99769.00
2018-09-22T02:26:44.145Z,99777.00
2018-09-22T02:29:14.037Z,99774.00
2018-09-22T02:31:45.144Z,99767.00
2018-09-22T02:34:14.952Z,99773.00
2018-09-22T02:36:44.505Z,99783.00
2018-09-22T02:39:14.223Z,99774.00
2018-09-22T02:41:43.947Z,99778.00
2018-09-22T02:44:13.960Z,99781.00
2018-09-22T02:46:43.405Z,99790.00
2018-09-22T02:49:12.943Z,99781.00
2018-09-22T02:51:42.501Z,99787.00
2018-09-22T02:54:12.341Z,99786.00
2018-09-22T02:56:42.185Z,99786.00
2018-09-22T02:59:12.204Z,99784.00
2018-09-22T03:01:42.098Z,99788.00
2018-09-22T03:04:12.094Z,99788.00
2018-09-22T03:06:41.899Z,99793.00
2018-09-22T03:09:11.935Z,99793.00
2018-09-22T03:11:41.386Z,99796.00
2018-09-22T03:14:11.651Z,99804.00
2018-09-22T03:16:41.805Z,99806.00
2018-09-22T03:19:11.650Z,99813.00
2018-09-22T03:21:41.852Z,99810.00
2018-09-22T03:24:11.741Z,99813.00
2018-09-22T03:26:41.228Z,99818.00
2018-09-22T03:29:10.872Z,99811.00
2018-09-22T03:31:41.588Z,99812.00
2018-09-22T03:34:11.360Z,99819.00
2018-09-22T03:36:41.290Z,99825.00
2018-09-22T03:39:12.407Z,99823.00
2018-09-22T03:41:42.298Z,99822.00
2018-09-22T03:44:12.208Z,99818.00
2018-09-22T03:46:42.288Z,99826.00
2018-09-22T03:49:11.996Z,99827.00
2018-09-22T03:51:42.056Z,99823.00
2018-09-22T03:54:11.612Z,99831.00
2018-09-22T03:56:41.420Z,99836.00
2018-09-22T03:59:18.637Z,99826.00
2018-09-22T04:01:48.402Z,99833.00
2018-09-22T04:04:18.841Z,99833.00
2018-09-22T04:06:48.900Z,99839.00
2018-09-22T04:09:18.473Z,99839.00
2018-09-22T04:11:48.314Z,99834.00
2018-09-22T04:14:18.036Z,99838.00
2018-09-22T04:16:49.128Z,99836.00
2018-09-22T04:19:19.054Z,99838.00
2018-09-22T04:21:48.898Z,99844.00
2018-09-22T04:24:20.776Z,99857.00
2018-09-22T04:26:52.660Z,99850.00
2018-09-22T04:29:22.656Z,99852.00
2018-09-22T04:31:53.838Z,99857.00
2018-09-22T04:34:23.584Z,99863.00
2018-09-22T04:36:53.362Z,99863.00
2018-09-22T04:39:23.703Z,99879.00
2018-09-22T04:41:54.858Z,99886.00
2018-09-22T04:44:27.394Z,99883.00
2018-09-22T04:46:57.718Z,99874.00
2018-09-22T04:49:27.469Z,99874.00
2018-09-22T04:51:56.949Z,99874.00
2018-09-22T04:54:26.461Z,99886.00
2018-09-22T04:56:55.992Z,99892.00
2018-09-22T04:59:25.484Z,99887.00
2018-09-22T05:01:55.242Z,99901.00
2018-09-22T05:04:24.746Z,99903.00
2018-09-22T05:06:54.249Z,99906.00
2018-09-22T05:09:24.116Z,99911.00
2018-09-22T05:11:53.702Z,99914.00
2018-09-22T05:14:23.245Z,99921.00
2018-09-22T05:16:52.901Z,99921.00
2018-09-22T05:19:22.433Z,99920.00
2018-09-22T05:21:51.826Z,99923.00
2018-09-22T05:24:21.342Z,99921.00
2018-09-22T05:26:50.902Z,99919.00
2018-09-22T05:29:20.457Z,99931.00
2018-09-22T05:31:49.888Z,99935.00
2018-09-22T05:34:19.567Z,99928.00
2018-09-22T05:36:49.074Z,99927.00
2018-09-22T05:39:18.668Z,99929.00
2018-09-22T05:41:48.464Z,99922.00
2018-09-22T05:44:17.925Z,99932.00
2018-09-22T05:46:47.467Z,99921.00
2018-09-22T05:49:17.199Z,99931.00
2018-09-22T05:51:46.797Z,99928.00
2018-09-22T05:54:16.434Z,99933.00
2018-09-22T05:56:45.917Z,99945.00
2018-09-22T05:59:15.579Z,99940.00
2018-09-22T06:01:45.182Z,99944.00
2018-09-22T06:04:15.157Z,99940.00
2018-09-22T06:06:44.728Z,99949.00
2018-09-22T06:09:15.501Z,99948.00
2018-09-22T06:11:45.025Z,99950.00
2018-09-22T06:14:14.714Z,99959.00
2018-09-22T06:16:44.172Z,99959.00
2018-09-22T06:19:14.800Z,99966.00
2018-09-22T06:21:44.226Z,99968.00
2018-09-22T06:24:14.004Z,99975.00
2018-09-22T06:26:43.443Z,99982.00
2018-09-22T06:29:13.858Z,99990.00
2018-09-22T06:31:43.306Z,99990.00
2018-09-22T06:34:12.738Z,99989.00
2018-09-22T06:36:42.266Z,100002.00
2018-09-22T06:39:12.629Z,100013.00
2018-09-22T06:41:43.061Z,100010.00
2018-09-22T06:44:12.645Z,100013.00
2018-09-22T06:46:42.123Z,100008.00
2018-09-22T06:49:11.900Z,100009.00
2018-09-22T06:51:41.420Z,100028.00
2018-09-22T06:54:10.814Z,100025.00
2018-09-22T06:56:40.394Z,100021.00
2018-09-22T06:59:10.251Z,100022.00
2018-09-22T07:01:39.646Z,100028.00
2018-09-22T07:04:09.247Z,100036.00
2018-09-22T07:06:38.740Z,100021.00
2018-09-22T07:09:08.747Z,100018.00
2018-09-22T07:11:38.984Z,100014.00
2018-09-22T07:14:08.413Z,100018.00
2018-09-22T07:16:38.083Z,100032.00
2018-09-22T07:19:07.744Z,100033.00
2018-09-22T07:21:42.395Z,100036.00
2018-09-22T07:24:11.956Z,100025.00
2018-09-22T07:26:41.816Z,100026.00
2018-09-22T07:29:11.502Z,100026.00
2018-09-22T07:31:41.004Z,100030.00
2018-09-22T07:34:10.666Z,100032.00
2018-09-22T07:36:40.275Z,100039.00
2018-09-22T07:39:11.546Z,100043.00
2018-09-22T07:41:41.066Z,100048.00
2018-09-22T07:44:10.732Z,100044.00
2018-09-22T07:46:40.502Z,100048.00
2018-09-22T07:49:10.386Z,100043.00
2018-09-22T07:51:40.197Z,100044.00
2018-09-22T07:54:10.410Z,100043.00
2018-09-22T07:56:40.065Z,100039.00
2018-09-22T07:59:09.770Z,100054.00
2018-09-22T08:01:39.205Z,100056.00
2018-09-22T08:04:09.104Z,100046.00
2018-09-22T08:06:38.862Z,100040.00
2018-09-22T08:09:08.874Z,100049.00
2018-09-22T08:11:38.442Z,100053.00
2018-09-22T08:14:08.505Z,100050.00
2018-09-22T08:16:38.203Z,100054.00
2018-09-22T08:19:08.281Z,100047.00
2018-09-22T08:21:37.820Z,100049.00
2018-09-22T08:24:07.608Z,100052.00
2018-09-22T08:26:38.468Z,100056.00
2018-09-22T08:29:08.460Z,100049.00
2018-09-22T08:31:38.536Z,100042.00
2018-09-22T08:34:08.276Z,100052.00
2018-09-22T08:36:38.296Z,100037.00
2018-09-22T08:39:11.084Z,100047.00
2018-09-22T08:41:41.110Z,100050.00
2018-09-22T08:44:10.877Z,100051.00
2018-09-22T08:46:41.226Z,100051.00
2018-09-22T08:49:12.975Z,100055.00
2018-09-22T08:51:42.532Z,100059.00
2018-09-22T08:54:12.701Z,100050.00
2018-09-22T08:56:43.418Z,100049.00
2018-09-22T08:59:13.781Z,100061.00
2018-09-22T09:01:44.267Z,100053.00
2018-09-22T09:04:13.990Z,100058.00
2018-09-22T09:06:44.184Z,100057.00
2018-09-22T09:09:14.170Z,100064.00
2018-09-22T09:11:43.912Z,100061.00
2018-09-22T09:14:13.968Z,100062.00
2018-09-22T09:16:43.669Z,100062.00
2018-09-22T09:19:13.345Z,100054.00
2018-09-22T09:21:42.916Z,100055.00
2018-09-22T09:24:12.548Z,100057.00
2018-09-22T09:26:42.226Z,100061.00
2018-09-22T09:29:12.528Z,100061.00
2018-09-22T09:31:42.604Z,100068.00
2018-09-22T09:34:12.356Z,100060.00
2018-09-22T09:36:42.048Z,100056.00
2018-09-22T09:39:11.629Z,100058.00
2018-09-22T09:41:41.278Z,100054.00
2018-09-22T09:44:10.771Z,100058.00
2018-09-22T09:46:40.738Z,100047.00
2018-09-22T09:49:10.270Z,100051.00
2018-09-22T09:51:46.472Z,100054.00
2018-09-22T09:54:16.150Z,100054.00
2018-09-22T09:56:46.865Z,100062.00
2018-09-22T09:59:16.767Z,100066.00
2018-09-22T10:01:46.499Z,100061.00
2018-09-22T10:04:16.142Z,100061.00
2018-09-22T10:06:45.525Z,100068.00
2018-09-22T10:09:15.079Z,100067.00
2018-09-22T10:11:45.457Z,100049.00
2018-09-22T10:14:14.939Z,100043.00
2018-09-22T10:16:45.244Z,100051.00
2018-09-22T10:19:14.796Z,100034.00
2018-09-22T10:21:47.132Z,100044.00
2018-09-22T10:24:17.428Z,100044.00
2018-09-22T10:26:47.821Z,100040.00
2018-09-22T10:29:17.331Z,100032.00
2018-09-22T10:31:48.310Z,100048.00
2018-09-22T10:34:19.623Z,100049.00
2018-09-22T10:36:49.311Z,100043.00
2018-09-22T10:39:19.216Z,100041.00
2018-09-22T10:41:48.668Z,100050.00
2018-09-22T10:44:18.173Z,100045.00
2018-09-22T10:46:47.888Z,100041.00
2018-09-22T10:49:18.772Z,100039.00
2018-09-22T10:51:48.722Z,100038.00
2018-09-22T10:54:18.356Z,100035.00
2018-09-22T10:56:48.556Z,100036.00
2018-09-22T10:59:18.894Z,100038.00
2018-09-22T11:01:49.201Z,100030.00
2018-09-22T11:04:18.867Z,100029.00
2018-09-22T11:06:52.456Z,100031.00
2018-09-22T11:09:22.189Z,100023.00
2018-09-22T11:11:51.904Z,100032.00
2018-09-22T11:14:22.510Z,100034.00
2018-09-22T11:16:52.220Z,100030.00
2018-09-22T11:19:21.945Z,100024.00
2018-09-22T11:21:51.644Z,100013.00
2018-09-22T11:24:21.290Z,100015.00
2018-09-22T11:26:51.834Z,100013.00
2018-09-22T11:29:21.521Z,100013.00
2018-09-22T11:31:51.321Z,100020.00
2018-09-22T11:34:21.750Z,100015.00
2018-09-22T11:36:51.390Z,100014.00
2018-09-22T11:39:20.960Z,100008.00
2018-09-22T11:41:50.502Z,100010.00
2018-09-22T11:44:20.068Z,100004.00
2018-09-22T11:46:49.680Z,100008.00
2018-09-22T11:49:19.201Z,100019.00
2018-09-22T11:51:48.650Z,100008.00
2018-09-22T11:54:18.239Z,100008.00
2018-09-22T11:56:47.650Z,99999.00
2018-09-22T11:59:17.435Z,100003.00
2018-09-22T12:01:47.229Z,100003.00
2018-09-22T12:04:16.931Z,100004.00
2018-09-22T12:06:46.572Z,100013.00
2018-09-22T12:09:16.196Z,100013.00
2018-09-22T12:11:45.776Z,100018.00
2018-09-22T12:14:15.241Z,99999.00
2018-09-22T12:16:44.798Z,100007.00
2018-09-22T12:19:14.305Z,100008.00
2018-09-22T12:21:43.967Z,100011.00
2018-09-22T12:24:13.597Z,100015.00
2018-09-22T12:26:43.257Z,100011.00
2018-09-22T12:29:12.867Z,100007.00
2018-09-22T12:31:42.459Z,100001.00
2018-09-22T12:34:11.873Z,99991.00
2018-09-22T12:36:41.627Z,99987.00
2018-09-22T12:39:12.632Z,99975.00
2018-09-22T12:41:42.236Z,99971.00
2018-09-22T12:44:12.133Z,99975.00
2018-09-22T12:46:41.624Z,99968.00
2018-09-22T12:49:11.352Z,99972.00
2018-09-22T12:51:41.032Z,99983.00
2018-09-22T12:54:10.783Z,99972.00
2018-09-22T12:56:40.358Z,99978.00
2018-09-22T12:59:11.171Z,99985.00
2018-09-22T13:01:40.861Z,99981.00
2018-09-22T13:04:10.630Z,99982.00
2018-09-22T13:06:40.270Z,99984.00
2018-09-22T13:09:11.138Z,99988.00
2018-09-22T13:11:40.811Z,99980.00
2018-09-22T13:14:10.838Z,99975.00
2018-09-22T13:16:40.370Z,99976.00
2018-09-22T13:19:09.896Z,99969.00
2018-09-22T13:21:39.739Z,99966.00
2018-09-22T13:24:09.488Z,99955.00
2018-09-22T13:26:39.089Z,99952.00
2018-09-22T13:29:08.496Z,99946.00
2018-09-22T13:31:37.983Z,99947.00
2018-09-22T13:34:07.598Z,99936.00
2018-09-22T13:36:37.318Z,99944.00
2018-09-22T13:39:11.754Z,99945.00
2018-09-22T13:41:41.796Z,99946.00
2018-09-22T13:44:11.451Z,99950.00
2018-09-22T13:46:41.035Z,99949.00
2018-09-22T13:49:11.460Z,99958.00
2018-09-22T13:51:40.855Z,99969.00
2018-09-22T13:54:10.680Z,99973.00
2018-09-22T13:56:40.208Z,99972.00
2018-09-22T13:59:09.664Z,99975.00
2018-09-22T14:01:39.176Z,99965.00
2018-09-22T14:04:08.664Z,99950.00
2018-09-22T14:06:39.011Z,99949.00
2018-09-22T14:09:11.814Z,99946.00
2018-09-22T14:11:41.570Z,99952.00
2018-09-22T14:14:11.345Z,99947.00
2018-09-22T14:16:41.062Z,99954.00
2018-09-22T14:19:11.596Z,99931.00
2018-09-22T14:21:41.806Z,99925.00
2018-09-22T14:24:12.107Z,99931.00
2018-09-22T14:26:41.745Z,99916.00
2018-09-22T14:29:11.402Z,99916.00
2018-09-22T14:31:41.019Z,99912.00
2018-09-22T14:34:10.738Z,99918.00
2018-09-22T14:36:40.180Z,99905.00
2018-09-22T14:39:10.724Z,99906.00
2018-09-22T14:41:40.988Z,99901.00
2018-09-22T14:44:10.826Z,99898.00
2018-09-22T14:46:41.563Z,99914.00
2018-09-22T14:49:11.584Z,99936.00
2018-09-22T14:51:41.372Z,99929.00
2018-09-22T14:54:11.735Z,99927.00
2018-09-22T14:56:41.191Z,99921.00
2018-09-22T14:59:10.872Z,99921.00
2018-09-22T15:01:40.554Z,99909.00
2018-09-22T15:04:10.105Z,99908.00
2018-09-22T15:06:39.851Z,99895.00
2018-09-22T15:09:09.474Z,99888.00
2018-09-22T15:11:38.933Z,99892.00
2018-09-22T15:14:08.662Z,99902.00
2018-09-22T15:16:38.114Z,99906.00
2018-09-22T15:19:07.730Z,99898.00
2018-09-22T15:21:37.358Z,99894.00
2018-09-22T15:24:06.898Z,99898.00
2018-09-22T15:26:36.739Z,99892.00
2018-09-22T15:29:06.469Z,99887.00
2018-09-22T15:31:36.494Z,99881.00
2018-09-22T15:34:06.354Z,99881.00
2018-09-22T15:36:35.894Z,99859.00
2018-09-22T15:39:07.377Z,99851.00
2018-09-22T15:41:37.175Z,99853.00
2018-09-22T15:44:07.217Z,99860.00
2018-09-22T15:46:37.583Z,99860.00
2018-09-22T15:49:07.422Z,99859.00
2018-09-22T15:51:36.989Z,99853.00
2018-09-22T15:54:06.371Z,99859.00
2018-09-22T15:56:35.828Z,99860.00
2018-09-22T15:59:05.602Z,99850.00
2018-09-22T16:01:35.208Z,99837.00
2018-09-22T16:04:04.882Z,99851.00
2018-09-22T16:06:34.441Z,99848.00
2018-09-22T16:09:05.412Z,99854.00
2018-09-22T16:11:35.268Z,99847.00
2018-09-22T16:14:04.853Z,99839.00
2018-09-22T16:16:34.243Z,99836.00
2018-09-22T16:19:04.113Z,99843.00
2018-09-22T16:21:33.961Z,99848.00
2018-09-22T16:24:03.862Z,99837.00
2018-09-22T16:26:33.314Z,99843.00
2018-09-22T16:29:02.962Z,99835.00
2018-09-22T16:31:32.909Z,99847.00
2018-09-22T16:34:03.866Z,99862.00
2018-09-22T16:36:33.338Z,99855.00
2018-09-22T16:39:02.786Z,99846.00
2018-09-22T16:41:33.114Z,99851.00
2018-09-22T16:44:03.485Z,99839.00
2018-09-22T16:46:33.367Z,99843.00
2018-09-22T16:49:03.093Z,99837.00
2018-09-22T16:51:33.058Z,99844.00
2018-09-22T16:54:02.570Z,99842.00
2018-09-22T16:56:32.381Z,99837.00
2018-09-22T16:59:02.109Z,99825.00
2018-09-22T17:01:32.054Z,99825.00
2018-09-22T17:04:02.189Z,99837.00
2018-09-22T17:06:31.984Z,99831.00
2018-09-22T17:09:01.583Z,99826.00
2018-09-22T17:11:32.449Z,99834.00
2018-09-22T17:14:03.648Z,99817.00
2018-09-22T17:16:34.290Z,99811.00
2018-09-22T17:19:07.016Z,99805.00
2018-09-22T17:21:38.029Z,99813.00
2018-09-22T17:24:08.215Z,99824.00
2018-09-22T17:26:39.090Z,99817.00
2018-09-22T17:29:09.262Z,99819.00
2018-09-22T17:31:40.206Z,99824.00
2018-09-22T17:34:09.814Z,99822.00
2018-09-22T17:36:39.341Z,99820.00
2018-09-22T17:39:10.467Z,99830.00
2018-09-22T17:41:40.703Z,99835.00
2018-09-22T17:44:10.480Z,99822.00
2018-09-22T17:46:40.583Z,99827.00
2018-09-22T17:49:10.389Z,99830.00
2018-09-22T17:51:39.975Z,99829.00
2018-09-22T17:54:09.620Z,99821.00
2018-09-22T17:56:40.971Z,99822.00
2018-09-22T17:59:10.696Z,99825.00
2018-09-22T18:01:40.226Z,99837.00
2018-09-22T18:04:10.446Z,99829.00
2018-09-22T18:06:40.277Z,99831.00
2018-09-22T18:09:10.347Z,99832.00
2018-09-22T18:11:40.622Z,99826.00
2018-09-22T18:14:10.317Z,99829.00
2018-09-22T18:16:40.636Z,99830.00
2018-09-22T18:19:10.275Z,99843.00
2018-09-22T18:21:39.973Z,99845.00
2018-09-22T18:24:09.608Z,99843.00
2018-09-22T18:26:39.076Z,99845.00
2018-09-22T18:29:09.192Z,99837.00
2018-09-22T18:31:38.928Z,99839.00
2018-09-22T18:34:08.447Z,99855.00
2018-09-22T18:36:37.898Z,99846.00
2018-09-22T18:39:08.969Z,99832.00
2018-09-22T18:41:38.912Z,99844.00
2018-09-22T18:44:08.384Z,99829.00
2018-09-22T18:46:38.123Z,99836.00
2018-09-22T18:49:08.553Z,99833.00
2018-09-22T18:51:38.273Z,99831.00
2018-09-22T18:54:08.035Z,99827.00
2018-09-22T18:56:37.587Z,99832.00
2018-09-22T18:59:07.742Z,99828.00
2018-09-22T19:01:37.283Z,99804.00
2018-09-22T19:04:06.931Z,99799.00
2018-09-22T19:06:36.559Z,99808.00
2018-09-22T19:09:08.823Z,99825.00
2018-09-22T19:11:38.335Z,99830.00
2018-09-22T19:14:18.331Z,99830.00
2018-09-22T19:16:52.312Z,99838.00
2018-09-22T19:19:28.261Z,99837.00
2018-09-22T19:22:02.817Z,99831.00
2018-09-22T19:25:04.213Z,99840.00
2018-09-22T19:27:51.468Z,99848.00
2018-09-22T19:30:51.881Z,99836.00
2018-09-22T19:33:29.333Z,99846.00
2018-09-22T19:36:04.039Z,99836.00
2018-09-22T19:38:38.314Z,99843.00
2018-09-22T19:41:14.056Z,99842.00
2018-09-22T19:43:49.667Z,99834.00
2018-09-22T19:46:24.376Z,99830.00
2018-09-22T19:49:06.549Z,99826.00
2018-09-22T19:51:39.811Z,99831.00
2018-09-22T19:54:09.387Z,99843.00
2018-09-22T19:56:39.032Z,99835.00
2018-09-22T19:59:08.977Z,99832.00
2018-09-22T20:01:39.014Z,99831.00
2018-09-22T20:04:09.153Z,99825.00
2018-09-22T20:06:38.711Z,99834.00
2018-09-22T20:09:08.388Z,99849.00
2018-09-22T20:11:37.947Z,99839.00
2018-09-22T20:14:07.802Z,99839.00
2018-09-22T20:16:37.291Z,99845.00
2018-09-22T20:19:06.867Z,99838.00
2018-09-22T20:21:36.481Z,99832.00
2018-09-22T20:24:06.152Z,99832.00
2018-09-22T20:26:35.667Z,99829.00
2018-09-22T20:29:05.306Z,99818.00
2018-09-22T20:31:35.531Z,99812.00
2018-09-22T20:34:05.158Z,99806.00
2018-09-22T20:36:34.916Z,99820.00
2018-09-22T20:39:05.387Z,99819.00
2018-09-22T20:41:35.256Z,99822.00
2018-09-22T20:44:05.175Z,99829.00
2018-09-22T20:46:35.650Z,99834.00
2018-09-22T20:49:06.150Z,99839.00
2018-09-22T20:51:35.783Z,99839.00
2018-09-22T20:54:05.389Z,99848.00
2018-09-22T20:56:35.745Z,99845.00
2018-09-22T20:59:05.945Z,99856.00
2018-09-22T21:01:36.534Z,99856.00
2018-09-22T21:04:06.497Z,99852.00
2018-09-22T21:06:36.788Z,99854.00
2018-09-22T21:09:09.019Z,99864.00
2018-09-22T21:11:39.034Z,99847.00
2018-09-22T21:14:08.704Z,99832.00
2018-09-22T21:16:38.323Z,99826.00
2018-09-22T21:19:08.524Z,99821.00
2018-09-22T21:21:39.026Z,99822.00
2018-09-22T21:24:08.869Z,99825.00
2018-09-22T21:26:38.399Z,99826.00
2018-09-22T21:29:08.622Z,99826.00
2018-09-22T21:31:38.238Z,99824.00
2018-09-22T21:34:08.034Z,99823.00
2018-09-22T21:36:37.562Z,99824.00
2018-09-22T21:39:10.018Z,99830.00
2018-09-22T21:41:39.978Z,99827.00
2018-09-22T21:44:09.555Z,99819.00
2018-09-22T21:46:39.228Z,99819.00
2018-09-22T21:49:08.893Z,99822.00
2018-09-22T21:51:38.590Z,99827.00
2018-09-22T21:54:09.250Z,99826.00
2018-09-22T21:56:38.756Z,99826.00
2018-09-22T21:59:08.359Z,99834.00
2018-09-22T22:01:39.618Z,99824.00
2018-09-22T22:04:10.402Z,99829.00
2018-09-22T22:06:40.060Z,99832.00
2018-09-22T22:09:11.642Z,99842.00
2018-09-22T22:11:41.698Z,99836.00
2018-09-22T22:14:11.747Z,99856.00
2018-09-22T22:16:41.626Z,99851.00
2018-09-22T22:19:11.222Z,99852.00
2018-09-22T22:21:40.738Z,99853.00
2018-09-22T22:24:10.293Z,99862.00
2018-09-22T22:26:39.797Z,99858.00
2018-09-22T22:29:09.944Z,99844.00
2018-09-22T22:31:39.754Z,99853.00
2018-09-22T22:34:09.245Z,99857.00
2018-09-22T22:36:38.757Z,99858.00
2018-09-22T22:39:08.658Z,99852.00
2018-09-22T22:41:38.901Z,99853.00
2018-09-22T22:44:08.785Z,99861.00
2018-09-22T22:46:38.363Z,99858.00
2018-09-22T22:49:08.066Z,99856.00
2018-09-22T22:51:37.745Z,99863.00
2018-09-22T22:54:07.640Z,99866.00
2018-09-22T22:56:37.344Z,99878.00
2018-09-22T22:59:07.184Z,99883.00
2018-09-22T23:01:38.554Z,99882.00
2018-09-22T23:04:08.263Z,99885.00
2018-09-22T23:06:38.172Z,99880.00
2018-09-22T23:09:09.238Z,99875.00
2018-09-22T23:11:39.284Z,99869.00
2018-09-22T23:14:08.822Z,99868.00
2018-09-22T23:16:39.580Z,99873.00
2018-09-22T23:19:09.589Z,99871.00
2018-09-22T23:21:39.227Z,99869.00
2018-09-22T23:24:08.765Z,99860.00
2018-09-22T23:26:38.547Z,99858.00
2018-09-22T23:29:08.082Z,99849.00
2018-09-22T23:31:37.557Z,99850.00
2018-09-22T23:34:07.246Z,99850.00
2018-09-22T23:36:37.225Z,99844.00
2018-09-22T23:39:09.529Z,99836.00
2018-09-22T23:41:39.565Z,99837.00
2018-09-22T23:44:09.589Z,99841.00
2018-09-22T23:46:39.808Z,99837.00
2018-09-22T23:49:10.035Z,99839.00
2018-09-22T23:51:39.604Z,99842.00
2018-09-22T23:54:09.828Z,99845.00
2018-09-22T23:56:39.617Z,99846.00
2018-09-22T23:59:09.153Z,99846.00
